sensor_id;sensor_type;location;lat;lon;timestamp;temperature;humidity
21031;DHT22;61072;47.808;7.636;2023-06-05T00:00:47;18.20;99.90
21031;DHT22;61072;47.808;7.636;2023-06-05T00:03:13;18.20;99.90
21031;DHT22;61072;47.808;7.636;2023-06-05T00:05:40;18.20;99.90
21031;DHT22;61072;47.808;7.636;2023-06-05T00:08:07;18.10;99.90
21031;DHT22;61072;47.808;7.636;2023-06-05T00:10:35;18.10;99.90
21031;DHT22;61072;47.808;7.636;2023-06-05T00:13:02;18.10;99.90
21031;DHT22;61072;47.808;7.636;2023-06-05T00:15:29;18.00;99.90
21031;DHT22;61072;47.808;7.636;2023-06-05T00:17:57;18.00;99.90
21031;DHT22;61072;47.808;7.636;2023-06-05T00:20:24;18.00;99.90
21031;DHT22;61072;47.808;7.636;2023-06-05T00:22:51;17.90;99.90
21031;DHT22;61072;47.808;7.636;2023-06-05T00:25:18;17.90;99.90
21031;DHT22;61072;47.808;7.636;2023-06-05T00:27:45;17.90;99.90
21031;DHT22;61072;47.808;7.636;2023-06-05T00:30:12;17.80;99.90
21031;DHT22;61072;47.808;7.636;2023-06-05T00:32:40;17.80;99.90
21031;DHT22;61072;47.808;7.636;2023-06-05T00:35:07;17.70;99.90
21031;DHT22;61072;47.808;7.636;2023-06-05T00:37:34;17.70;99.90
21031;DHT22;61072;47.808;7.636;2023-06-05T00:40:00;17.70;99.90
21031;DHT22;61072;47.808;7.636;2023-06-05T00:42:27;17.70;99.90
21031;DHT22;61072;47.808;7.636;2023-06-05T00:44:54;17.60;99.90
21031;DHT22;61072;47.808;7.636;2023-06-05T00:47:21;17.60;99.90
21031;DHT22;61072;47.808;7.636;2023-06-05T00:49:50;17.60;99.90
21031;DHT22;61072;47.808;7.636;2023-06-05T00:52:17;17.50;99.90
21031;DHT22;61072;47.808;7.636;2023-06-05T00:54:44;17.50;99.90
21031;DHT22;61072;47.808;7.636;2023-06-05T00:57:11;17.50;99.90
21031;DHT22;61072;47.808;7.636;2023-06-05T00:59:38;17.40;99.90
21031;DHT22;61072;47.808;7.636;2023-06-05T01:02:06;17.30;99.90
21031;DHT22;61072;47.808;7.636;2023-06-05T01:04:33;17.30;99.90
21031;DHT22;61072;47.808;7.636;2023-06-05T01:07:03;17.30;99.90
21031;DHT22;61072;47.808;7.636;2023-06-05T01:09:30;17.30;99.90
21031;DHT22;61072;47.808;7.636;2023-06-05T01:12:05;17.20;99.90
21031;DHT22;61072;47.808;7.636;2023-06-05T01:14:35;17.20;99.90
21031;DHT22;61072;47.808;7.636;2023-06-05T01:17:04;17.20;99.90
21031;DHT22;61072;47.808;7.636;2023-06-05T01:19:35;17.10;99.90
21031;DHT22;61072;47.808;7.636;2023-06-05T01:22:02;17.10;99.90
21031;DHT22;61072;47.808;7.636;2023-06-05T01:24:29;17.10;99.90
21031;DHT22;61072;47.808;7.636;2023-06-05T01:29:59;17.00;99.90
21031;DHT22;61072;47.808;7.636;2023-06-05T01:32:56;17.00;99.90
21031;DHT22;61072;47.808;7.636;2023-06-05T01:35:29;17.00;99.90
21031;DHT22;61072;47.808;7.636;2023-06-05T01:38:00;16.90;99.90
21031;DHT22;61072;47.808;7.636;2023-06-05T01:40:30;16.90;99.90
21031;DHT22;61072;47.808;7.636;2023-06-05T01:42:59;16.90;99.90
21031;DHT22;61072;47.808;7.636;2023-06-05T01:45:26;16.80;99.90
21031;DHT22;61072;47.808;7.636;2023-06-05T01:47:53;16.80;99.90
21031;DHT22;61072;47.808;7.636;2023-06-05T01:50:21;16.80;99.90
21031;DHT22;61072;47.808;7.636;2023-06-05T01:52:48;16.80;99.90
21031;DHT22;61072;47.808;7.636;2023-06-05T01:55:18;16.70;99.90
21031;DHT22;61072;47.808;7.636;2023-06-05T01:57:46;16.70;99.90
21031;DHT22;61072;47.808;7.636;2023-06-05T02:00:13;16.70;99.90
21031;DHT22;61072;47.808;7.636;2023-06-05T02:02:43;16.70;99.90
21031;DHT22;61072;47.808;7.636;2023-06-05T02:05:12;16.60;99.90
21031;DHT22;61072;47.808;7.636;2023-06-05T02:07:41;16.60;99.90
21031;DHT22;61072;47.808;7.636;2023-06-05T02:10:08;16.60;99.90
21031;DHT22;61072;47.808;7.636;2023-06-05T02:12:36;16.50;99.90
21031;DHT22;61072;47.808;7.636;2023-06-05T02:15:08;16.50;99.90
21031;DHT22;61072;47.808;7.636;2023-06-05T02:17:39;16.50;99.90
21031;DHT22;61072;47.808;7.636;2023-06-05T02:20:12;16.50;99.90
21031;DHT22;61072;47.808;7.636;2023-06-05T02:22:39;16.50;99.90
21031;DHT22;61072;47.808;7.636;2023-06-05T02:25:08;16.40;99.90
21031;DHT22;61072;47.808;7.636;2023-06-05T02:27:35;16.40;99.90
21031;DHT22;61072;47.808;7.636;2023-06-05T02:30:03;16.30;99.90
21031;DHT22;61072;47.808;7.636;2023-06-05T02:32:29;16.30;99.90
21031;DHT22;61072;47.808;7.636;2023-06-05T02:34:58;16.30;99.90
21031;DHT22;61072;47.808;7.636;2023-06-05T02:37:25;16.30;99.90
21031;DHT22;61072;47.808;7.636;2023-06-05T02:39:53;16.20;99.90
21031;DHT22;61072;47.808;7.636;2023-06-05T02:42:19;16.20;99.90
21031;DHT22;61072;47.808;7.636;2023-06-05T02:44:47;16.20;99.90
21031;DHT22;61072;47.808;7.636;2023-06-05T02:47:13;16.20;99.90
21031;DHT22;61072;47.808;7.636;2023-06-05T02:49:40;16.10;99.90
21031;DHT22;61072;47.808;7.636;2023-06-05T02:52:07;16.10;99.90
21031;DHT22;61072;47.808;7.636;2023-06-05T02:54:33;16.10;99.90
21031;DHT22;61072;47.808;7.636;2023-06-05T02:57:01;16.10;99.90
21031;DHT22;61072;47.808;7.636;2023-06-05T02:59:28;16.00;99.90
21031;DHT22;61072;47.808;7.636;2023-06-05T03:01:58;16.00;99.90
21031;DHT22;61072;47.808;7.636;2023-06-05T03:04:25;16.00;99.90
21031;DHT22;61072;47.808;7.636;2023-06-05T03:06:51;16.00;99.90
21031;DHT22;61072;47.808;7.636;2023-06-05T03:09:19;16.00;99.90
21031;DHT22;61072;47.808;7.636;2023-06-05T03:11:46;15.90;99.90
21031;DHT22;61072;47.808;7.636;2023-06-05T03:14:13;15.90;99.90
21031;DHT22;61072;47.808;7.636;2023-06-05T03:16:40;15.90;99.90
21031;DHT22;61072;47.808;7.636;2023-06-05T03:19:10;15.80;99.90
21031;DHT22;61072;47.808;7.636;2023-06-05T03:21:38;15.80;99.90
21031;DHT22;61072;47.808;7.636;2023-06-05T03:24:08;15.80;99.90
21031;DHT22;61072;47.808;7.636;2023-06-05T03:26:35;15.80;99.90
21031;DHT22;61072;47.808;7.636;2023-06-05T03:29:03;15.70;99.90
21031;DHT22;61072;47.808;7.636;2023-06-05T03:31:29;15.70;99.90
21031;DHT22;61072;47.808;7.636;2023-06-05T03:33:57;15.70;99.90
21031;DHT22;61072;47.808;7.636;2023-06-05T03:36:26;15.70;99.90
21031;DHT22;61072;47.808;7.636;2023-06-05T03:38:55;15.60;99.90
21031;DHT22;61072;47.808;7.636;2023-06-05T03:41:22;15.60;99.90
21031;DHT22;61072;47.808;7.636;2023-06-05T03:43:49;15.60;99.90
21031;DHT22;61072;47.808;7.636;2023-06-05T03:46:16;15.60;99.90
21031;DHT22;61072;47.808;7.636;2023-06-05T03:48:47;15.60;99.90
21031;DHT22;61072;47.808;7.636;2023-06-05T03:51:16;15.60;99.90
21031;DHT22;61072;47.808;7.636;2023-06-05T03:53:46;15.60;99.90
21031;DHT22;61072;47.808;7.636;2023-06-05T03:56:12;15.60;99.90
21031;DHT22;61072;47.808;7.636;2023-06-05T03:58:41;15.50;99.90
21031;DHT22;61072;47.808;7.636;2023-06-05T04:01:08;15.50;99.90
21031;DHT22;61072;47.808;7.636;2023-06-05T04:03:35;15.50;99.90
21031;DHT22;61072;47.808;7.636;2023-06-05T04:06:04;15.60;99.90
21031;DHT22;61072;47.808;7.636;2023-06-05T04:08:31;15.60;99.90
21031;DHT22;61072;47.808;7.636;2023-06-05T04:10:58;15.50;99.90
21031;DHT22;61072;47.808;7.636;2023-06-05T04:13:25;15.60;99.90
21031;DHT22;61072;47.808;7.636;2023-06-05T04:15:53;15.60;99.90
21031;DHT22;61072;47.808;7.636;2023-06-05T04:18:20;15.60;99.90
21031;DHT22;61072;47.808;7.636;2023-06-05T04:20:46;15.60;99.90
21031;DHT22;61072;47.808;7.636;2023-06-05T04:23:13;15.60;99.90
21031;DHT22;61072;47.808;7.636;2023-06-05T04:25:40;15.60;99.90
21031;DHT22;61072;47.808;7.636;2023-06-05T04:28:11;15.60;99.90
21031;DHT22;61072;47.808;7.636;2023-06-05T04:30:38;15.60;99.90
21031;DHT22;61072;47.808;7.636;2023-06-05T04:33:05;15.60;99.90
21031;DHT22;61072;47.808;7.636;2023-06-05T04:35:32;15.60;99.90
21031;DHT22;61072;47.808;7.636;2023-06-05T04:38:00;15.70;99.90
21031;DHT22;61072;47.808;7.636;2023-06-05T04:40:27;15.70;99.90
21031;DHT22;61072;47.808;7.636;2023-06-05T04:42:54;15.70;99.90
21031;DHT22;61072;47.808;7.636;2023-06-05T04:45:21;15.80;99.90
21031;DHT22;61072;47.808;7.636;2023-06-05T04:47:47;15.80;99.90
21031;DHT22;61072;47.808;7.636;2023-06-05T04:50:25;15.80;99.90
21031;DHT22;61072;47.808;7.636;2023-06-05T04:52:52;15.90;99.90
21031;DHT22;61072;47.808;7.636;2023-06-05T04:55:20;16.00;99.90
21031;DHT22;61072;47.808;7.636;2023-06-05T04:57:47;16.10;99.90
21031;DHT22;61072;47.808;7.636;2023-06-05T05:00:15;16.20;99.90
21031;DHT22;61072;47.808;7.636;2023-06-05T05:02:42;16.40;99.90
21031;DHT22;61072;47.808;7.636;2023-06-05T05:05:09;16.50;99.90
21031;DHT22;61072;47.808;7.636;2023-06-05T05:07:42;16.60;99.90
21031;DHT22;61072;47.808;7.636;2023-06-05T05:10:10;16.80;99.90
21031;DHT22;61072;47.808;7.636;2023-06-05T05:12:37;16.90;99.90
21031;DHT22;61072;47.808;7.636;2023-06-05T05:15:05;17.00;99.90
21031;DHT22;61072;47.808;7.636;2023-06-05T05:17:32;17.10;99.90
21031;DHT22;61072;47.808;7.636;2023-06-05T05:19:59;17.30;99.90
21031;DHT22;61072;47.808;7.636;2023-06-05T05:22:26;17.40;99.90
21031;DHT22;61072;47.808;7.636;2023-06-05T05:24:53;17.50;99.90
21031;DHT22;61072;47.808;7.636;2023-06-05T05:27:20;17.60;99.90
21031;DHT22;61072;47.808;7.636;2023-06-05T05:29:47;17.60;99.90
21031;DHT22;61072;47.808;7.636;2023-06-05T05:32:14;17.70;99.90
21031;DHT22;61072;47.808;7.636;2023-06-05T05:34:41;17.80;99.90
21031;DHT22;61072;47.808;7.636;2023-06-05T05:37:07;17.90;99.90
21031;DHT22;61072;47.808;7.636;2023-06-05T05:39:34;17.90;99.90
21031;DHT22;61072;47.808;7.636;2023-06-05T05:42:01;17.90;99.90
21031;DHT22;61072;47.808;7.636;2023-06-05T05:44:29;18.00;99.90
21031;DHT22;61072;47.808;7.636;2023-06-05T05:46:55;18.00;99.90
21031;DHT22;61072;47.808;7.636;2023-06-05T05:49:22;18.00;99.90
21031;DHT22;61072;47.808;7.636;2023-06-05T05:51:50;18.00;99.90
21031;DHT22;61072;47.808;7.636;2023-06-05T05:54:17;18.00;99.90
21031;DHT22;61072;47.808;7.636;2023-06-05T05:56:44;18.00;99.90
21031;DHT22;61072;47.808;7.636;2023-06-05T05:59:10;18.00;99.90
21031;DHT22;61072;47.808;7.636;2023-06-05T06:01:37;18.00;99.90
21031;DHT22;61072;47.808;7.636;2023-06-05T06:04:05;18.00;99.90
21031;DHT22;61072;47.808;7.636;2023-06-05T06:06:32;18.00;99.90
21031;DHT22;61072;47.808;7.636;2023-06-05T06:09:00;18.00;99.90
21031;DHT22;61072;47.808;7.636;2023-06-05T06:11:28;18.00;99.90
21031;DHT22;61072;47.808;7.636;2023-06-05T06:13:55;18.00;99.90
21031;DHT22;61072;47.808;7.636;2023-06-05T06:16:22;18.00;99.90
21031;DHT22;61072;47.808;7.636;2023-06-05T06:18:48;18.00;99.90
21031;DHT22;61072;47.808;7.636;2023-06-05T06:21:15;18.00;99.90
21031;DHT22;61072;47.808;7.636;2023-06-05T06:23:42;17.90;99.90
21031;DHT22;61072;47.808;7.636;2023-06-05T06:26:11;17.90;99.90
21031;DHT22;61072;47.808;7.636;2023-06-05T06:28:42;17.80;99.90
21031;DHT22;61072;47.808;7.636;2023-06-05T06:31:09;17.80;99.90
21031;DHT22;61072;47.808;7.636;2023-06-05T06:33:37;17.70;99.90
21031;DHT22;61072;47.808;7.636;2023-06-05T06:36:04;17.70;99.90
21031;DHT22;61072;47.808;7.636;2023-06-05T06:38:31;17.70;99.90
21031;DHT22;61072;47.808;7.636;2023-06-05T06:40:59;17.80;99.90
21031;DHT22;61072;47.808;7.636;2023-06-05T06:43:25;17.80;99.90
21031;DHT22;61072;47.808;7.636;2023-06-05T06:45:52;17.90;99.90
21031;DHT22;61072;47.808;7.636;2023-06-05T06:48:19;17.80;99.90
21031;DHT22;61072;47.808;7.636;2023-06-05T06:50:46;17.80;99.90
21031;DHT22;61072;47.808;7.636;2023-06-05T06:53:13;17.80;99.90
21031;DHT22;61072;47.808;7.636;2023-06-05T06:55:40;17.80;99.90
21031;DHT22;61072;47.808;7.636;2023-06-05T06:58:07;17.90;99.90
21031;DHT22;61072;47.808;7.636;2023-06-05T07:00:33;17.90;99.90
21031;DHT22;61072;47.808;7.636;2023-06-05T07:03:01;17.90;99.90
21031;DHT22;61072;47.808;7.636;2023-06-05T07:05:29;17.90;99.90
21031;DHT22;61072;47.808;7.636;2023-06-05T07:07:55;17.90;99.90
21031;DHT22;61072;47.808;7.636;2023-06-05T07:10:28;17.90;99.90
21031;DHT22;61072;47.808;7.636;2023-06-05T07:12:55;18.00;99.90
21031;DHT22;61072;47.808;7.636;2023-06-05T07:15:21;18.00;99.90
21031;DHT22;61072;47.808;7.636;2023-06-05T07:17:48;18.00;99.90
21031;DHT22;61072;47.808;7.636;2023-06-05T07:20:15;18.00;99.90
21031;DHT22;61072;47.808;7.636;2023-06-05T07:22:44;18.00;99.90
21031;DHT22;61072;47.808;7.636;2023-06-05T07:25:13;18.00;99.90
21031;DHT22;61072;47.808;7.636;2023-06-05T07:27:45;18.10;99.90
21031;DHT22;61072;47.808;7.636;2023-06-05T07:30:12;18.10;99.90
21031;DHT22;61072;47.808;7.636;2023-06-05T07:32:42;18.20;99.90
21031;DHT22;61072;47.808;7.636;2023-06-05T07:35:09;18.20;99.90
21031;DHT22;61072;47.808;7.636;2023-06-05T07:37:36;18.20;99.90
21031;DHT22;61072;47.808;7.636;2023-06-05T07:40:03;18.30;99.90
21031;DHT22;61072;47.808;7.636;2023-06-05T07:42:30;18.30;99.90
21031;DHT22;61072;47.808;7.636;2023-06-05T07:44:57;18.30;99.90
21031;DHT22;61072;47.808;7.636;2023-06-05T07:47:23;18.30;99.90
21031;DHT22;61072;47.808;7.636;2023-06-05T07:49:59;18.40;99.90
21031;DHT22;61072;47.808;7.636;2023-06-05T07:52:26;18.40;99.90
21031;DHT22;61072;47.808;7.636;2023-06-05T07:54:53;18.40;99.90
21031;DHT22;61072;47.808;7.636;2023-06-05T07:57:20;18.50;99.90
21031;DHT22;61072;47.808;7.636;2023-06-05T07:59:47;18.50;99.90
21031;DHT22;61072;47.808;7.636;2023-06-05T08:02:15;18.50;99.90
21031;DHT22;61072;47.808;7.636;2023-06-05T08:04:43;18.60;99.90
21031;DHT22;61072;47.808;7.636;2023-06-05T08:07:10;18.60;99.90
21031;DHT22;61072;47.808;7.636;2023-06-05T08:09:37;18.70;99.90
21031;DHT22;61072;47.808;7.636;2023-06-05T08:12:07;18.70;99.90
21031;DHT22;61072;47.808;7.636;2023-06-05T08:14:34;18.70;99.90
21031;DHT22;61072;47.808;7.636;2023-06-05T08:17:02;18.80;99.90
21031;DHT22;61072;47.808;7.636;2023-06-05T08:19:29;18.80;99.90
21031;DHT22;61072;47.808;7.636;2023-06-05T08:21:55;18.80;99.90
21031;DHT22;61072;47.808;7.636;2023-06-05T08:24:23;18.90;99.90
21031;DHT22;61072;47.808;7.636;2023-06-05T08:26:50;18.90;99.90
21031;DHT22;61072;47.808;7.636;2023-06-05T08:29:17;19.00;99.90
21031;DHT22;61072;47.808;7.636;2023-06-05T08:31:44;19.00;99.90
21031;DHT22;61072;47.808;7.636;2023-06-05T08:34:11;19.00;99.90
21031;DHT22;61072;47.808;7.636;2023-06-05T08:36:38;19.10;99.90
21031;DHT22;61072;47.808;7.636;2023-06-05T08:39:05;19.10;99.90
21031;DHT22;61072;47.808;7.636;2023-06-05T08:41:32;19.10;99.90
21031;DHT22;61072;47.808;7.636;2023-06-05T08:43:59;19.20;99.90
21031;DHT22;61072;47.808;7.636;2023-06-05T08:46:29;19.30;99.90
21031;DHT22;61072;47.808;7.636;2023-06-05T08:48:57;19.30;99.90
21031;DHT22;61072;47.808;7.636;2023-06-05T08:51:27;19.30;99.90
21031;DHT22;61072;47.808;7.636;2023-06-05T08:54:00;19.40;99.90
21031;DHT22;61072;47.808;7.636;2023-06-05T08:56:40;19.40;99.90
21031;DHT22;61072;47.808;7.636;2023-06-05T08:59:07;19.40;99.90
21031;DHT22;61072;47.808;7.636;2023-06-05T09:01:34;19.40;99.90
21031;DHT22;61072;47.808;7.636;2023-06-05T09:04:01;19.50;99.90
21031;DHT22;61072;47.808;7.636;2023-06-05T09:06:28;19.60;99.90
21031;DHT22;61072;47.808;7.636;2023-06-05T09:08:55;19.60;99.90
21031;DHT22;61072;47.808;7.636;2023-06-05T09:11:27;19.60;99.90
21031;DHT22;61072;47.808;7.636;2023-06-05T09:13:56;19.70;99.90
21031;DHT22;61072;47.808;7.636;2023-06-05T09:16:34;19.80;99.90
21031;DHT22;61072;47.808;7.636;2023-06-05T09:19:01;19.80;99.90
21031;DHT22;61072;47.808;7.636;2023-06-05T09:21:28;19.90;99.90
21031;DHT22;61072;47.808;7.636;2023-06-05T09:26:58;19.90;99.90
21031;DHT22;61072;47.808;7.636;2023-06-05T09:29:30;20.00;99.90
21031;DHT22;61072;47.808;7.636;2023-06-05T09:32:01;20.00;99.90
21031;DHT22;61072;47.808;7.636;2023-06-05T09:34:32;20.10;99.90
21031;DHT22;61072;47.808;7.636;2023-06-05T09:37:01;20.10;99.90
21031;DHT22;61072;47.808;7.636;2023-06-05T09:39:29;20.20;99.90
21031;DHT22;61072;47.808;7.636;2023-06-05T09:41:58;20.20;99.90
21031;DHT22;61072;47.808;7.636;2023-06-05T09:44:26;20.30;99.90
21031;DHT22;61072;47.808;7.636;2023-06-05T09:47:06;20.40;99.90
21031;DHT22;61072;47.808;7.636;2023-06-05T09:52:10;20.50;99.90
21031;DHT22;61072;47.808;7.636;2023-06-05T09:54:42;20.60;99.90
21031;DHT22;61072;47.808;7.636;2023-06-05T09:57:12;20.60;99.90
21031;DHT22;61072;47.808;7.636;2023-06-05T09:59:53;20.70;99.90
21031;DHT22;61072;47.808;7.636;2023-06-05T10:02:24;20.70;99.90
21031;DHT22;61072;47.808;7.636;2023-06-05T10:05:00;20.80;99.90
21031;DHT22;61072;47.808;7.636;2023-06-05T10:07:27;20.80;99.90
21031;DHT22;61072;47.808;7.636;2023-06-05T10:09:54;20.90;99.90
21031;DHT22;61072;47.808;7.636;2023-06-05T10:12:23;20.90;99.90
21031;DHT22;61072;47.808;7.636;2023-06-05T10:14:50;21.00;99.90
21031;DHT22;61072;47.808;7.636;2023-06-05T10:17:18;21.00;99.90
21031;DHT22;61072;47.808;7.636;2023-06-05T10:19:46;21.00;99.90
21031;DHT22;61072;47.808;7.636;2023-06-05T10:22:13;21.10;99.90
21031;DHT22;61072;47.808;7.636;2023-06-05T10:24:45;21.20;99.90
21031;DHT22;61072;47.808;7.636;2023-06-05T10:38:20;21.50;99.90
21031;DHT22;61072;47.808;7.636;2023-06-05T10:40:49;21.50;99.90
21031;DHT22;61072;47.808;7.636;2023-06-05T10:43:25;21.60;99.90
21031;DHT22;61072;47.808;7.636;2023-06-05T10:45:53;21.60;99.90
21031;DHT22;61072;47.808;7.636;2023-06-05T10:49:09;21.70;99.90
21031;DHT22;61072;47.808;7.636;2023-06-05T10:51:52;21.80;99.90
21031;DHT22;61072;47.808;7.636;2023-06-05T10:57:02;21.90;99.90
21031;DHT22;61072;47.808;7.636;2023-06-05T10:59:31;21.90;99.90
21031;DHT22;61072;47.808;7.636;2023-06-05T11:07:24;22.10;99.90
21031;DHT22;61072;47.808;7.636;2023-06-05T11:15:09;22.30;99.90
21031;DHT22;61072;47.808;7.636;2023-06-05T11:17:44;22.30;99.90
21031;DHT22;61072;47.808;7.636;2023-06-05T11:28:04;22.50;99.90
21031;DHT22;61072;47.808;7.636;2023-06-05T11:30:39;22.50;99.90
21031;DHT22;61072;47.808;7.636;2023-06-05T11:33:09;22.60;99.90
21031;DHT22;61072;47.808;7.636;2023-06-05T11:35:41;22.70;99.90
21031;DHT22;61072;47.808;7.636;2023-06-05T11:38:14;22.70;99.90
21031;DHT22;61072;47.808;7.636;2023-06-05T11:40:42;22.80;99.90
21031;DHT22;61072;47.808;7.636;2023-06-05T11:43:11;22.80;99.90
21031;DHT22;61072;47.808;7.636;2023-06-05T11:45:40;22.80;99.90
21031;DHT22;61072;47.808;7.636;2023-06-05T11:48:14;22.90;99.90
21031;DHT22;61072;47.808;7.636;2023-06-05T11:50:59;23.00;99.90
21031;DHT22;61072;47.808;7.636;2023-06-05T11:53:28;23.00;99.90
21031;DHT22;61072;47.808;7.636;2023-06-05T11:55:56;23.10;99.90
21031;DHT22;61072;47.808;7.636;2023-06-05T11:58:39;23.10;99.90
21031;DHT22;61072;47.808;7.636;2023-06-05T12:01:13;23.30;99.90
21031;DHT22;61072;47.808;7.636;2023-06-05T12:04:03;23.30;99.90
21031;DHT22;61072;47.808;7.636;2023-06-05T12:06:31;23.40;99.90
21031;DHT22;61072;47.808;7.636;2023-06-05T12:09:11;23.50;99.90
21031;DHT22;61072;47.808;7.636;2023-06-05T12:11:40;23.50;99.90
21031;DHT22;61072;47.808;7.636;2023-06-05T12:14:10;23.60;99.90
21031;DHT22;61072;47.808;7.636;2023-06-05T12:16:41;23.70;99.90
21031;DHT22;61072;47.808;7.636;2023-06-05T12:19:16;23.70;99.10
21031;DHT22;61072;47.808;7.636;2023-06-05T12:21:45;23.80;99.50
21031;DHT22;61072;47.808;7.636;2023-06-05T12:24:12;23.80;99.90
21031;DHT22;61072;47.808;7.636;2023-06-05T12:26:58;23.90;99.00
21031;DHT22;61072;47.808;7.636;2023-06-05T12:29:28;23.90;98.70
21031;DHT22;61072;47.808;7.636;2023-06-05T12:32:00;23.90;98.60
21031;DHT22;61072;47.808;7.636;2023-06-05T12:34:40;24.00;98.90
21031;DHT22;61072;47.808;7.636;2023-06-05T12:39:58;24.00;98.60
21031;DHT22;61072;47.808;7.636;2023-06-05T12:42:25;24.10;99.20
21031;DHT22;61072;47.808;7.636;2023-06-05T12:44:53;24.10;98.90
21031;DHT22;61072;47.808;7.636;2023-06-05T12:47:20;24.20;98.90
21031;DHT22;61072;47.808;7.636;2023-06-05T12:49:47;24.20;98.40
21031;DHT22;61072;47.808;7.636;2023-06-05T12:52:14;24.20;98.00
21031;DHT22;61072;47.808;7.636;2023-06-05T12:54:41;24.30;98.40
21031;DHT22;61072;47.808;7.636;2023-06-05T12:57:07;24.30;98.80
21031;DHT22;61072;47.808;7.636;2023-06-05T12:59:38;24.30;98.90
21031;DHT22;61072;47.808;7.636;2023-06-05T13:02:05;24.30;98.00
21031;DHT22;61072;47.808;7.636;2023-06-05T13:04:32;24.40;98.30
21031;DHT22;61072;47.808;7.636;2023-06-05T13:07:02;24.40;98.70
21031;DHT22;61072;47.808;7.636;2023-06-05T13:09:30;24.40;97.50
21031;DHT22;61072;47.808;7.636;2023-06-05T13:11:57;24.40;98.10
21031;DHT22;61072;47.808;7.636;2023-06-05T13:14:26;24.40;98.70
21031;DHT22;61072;47.808;7.636;2023-06-05T13:16:53;24.40;98.20
21031;DHT22;61072;47.808;7.636;2023-06-05T13:19:20;24.50;98.50
21031;DHT22;61072;47.808;7.636;2023-06-05T13:21:51;24.50;98.20
21031;DHT22;61072;47.808;7.636;2023-06-05T13:24:18;24.50;98.50
21031;DHT22;61072;47.808;7.636;2023-06-05T13:26:45;24.50;98.10
21031;DHT22;61072;47.808;7.636;2023-06-05T13:29:13;24.50;98.00
21031;DHT22;61072;47.808;7.636;2023-06-05T13:31:40;24.50;98.00
21031;DHT22;61072;47.808;7.636;2023-06-05T13:34:07;24.50;97.50
21031;DHT22;61072;47.808;7.636;2023-06-05T13:36:34;24.60;98.60
21031;DHT22;61072;47.808;7.636;2023-06-05T13:39:00;24.60;99.20
21031;DHT22;61072;47.808;7.636;2023-06-05T13:41:27;24.60;98.50
21031;DHT22;61072;47.808;7.636;2023-06-05T13:43:54;24.70;97.50
21031;DHT22;61072;47.808;7.636;2023-06-05T13:46:24;24.70;97.90
21031;DHT22;61072;47.808;7.636;2023-06-05T13:48:52;24.70;97.10
21031;DHT22;61072;47.808;7.636;2023-06-05T13:51:19;24.70;97.40
21031;DHT22;61072;47.808;7.636;2023-06-05T13:53:46;24.70;97.10
21031;DHT22;61072;47.808;7.636;2023-06-05T13:56:13;24.70;96.70
21031;DHT22;61072;47.808;7.636;2023-06-05T13:58:39;24.70;97.40
21031;DHT22;61072;47.808;7.636;2023-06-05T14:01:06;24.70;97.80
21031;DHT22;61072;47.808;7.636;2023-06-05T14:03:33;24.80;97.60
21031;DHT22;61072;47.808;7.636;2023-06-05T14:06:00;24.80;97.50
21031;DHT22;61072;47.808;7.636;2023-06-05T14:08:27;24.80;96.80
21031;DHT22;61072;47.808;7.636;2023-06-05T14:10:55;24.80;96.60
21031;DHT22;61072;47.808;7.636;2023-06-05T14:13:21;24.80;96.40
21031;DHT22;61072;47.808;7.636;2023-06-05T14:15:48;24.80;96.20
21031;DHT22;61072;47.808;7.636;2023-06-05T14:18:15;24.80;97.10
21031;DHT22;61072;47.808;7.636;2023-06-05T14:20:42;24.80;97.00
21031;DHT22;61072;47.808;7.636;2023-06-05T14:23:09;24.80;96.90
21031;DHT22;61072;47.808;7.636;2023-06-05T14:25:36;24.80;96.00
21031;DHT22;61072;47.808;7.636;2023-06-05T14:28:03;24.80;96.30
21031;DHT22;61072;47.808;7.636;2023-06-05T14:30:30;24.80;96.20
21031;DHT22;61072;47.808;7.636;2023-06-05T14:32:57;24.80;96.00
21031;DHT22;61072;47.808;7.636;2023-06-05T14:35:24;24.80;96.60
21031;DHT22;61072;47.808;7.636;2023-06-05T14:37:51;24.90;96.40
21031;DHT22;61072;47.808;7.636;2023-06-05T14:40:18;24.90;96.00
21031;DHT22;61072;47.808;7.636;2023-06-05T14:42:44;24.90;96.50
21031;DHT22;61072;47.808;7.636;2023-06-05T14:45:11;25.00;95.50
21031;DHT22;61072;47.808;7.636;2023-06-05T14:47:38;25.00;95.90
21031;DHT22;61072;47.808;7.636;2023-06-05T14:50:06;25.00;96.10
21031;DHT22;61072;47.808;7.636;2023-06-05T14:52:34;25.00;96.60
21031;DHT22;61072;47.808;7.636;2023-06-05T14:55:02;25.10;97.10
21031;DHT22;61072;47.808;7.636;2023-06-05T14:57:35;25.10;96.80
21031;DHT22;61072;47.808;7.636;2023-06-05T15:00:05;25.10;96.40
21031;DHT22;61072;47.808;7.636;2023-06-05T15:02:32;25.10;96.70
21031;DHT22;61072;47.808;7.636;2023-06-05T15:04:59;25.10;96.20
21031;DHT22;61072;47.808;7.636;2023-06-05T15:07:38;25.20;96.70
21031;DHT22;61072;47.808;7.636;2023-06-05T15:10:05;25.20;96.20
21031;DHT22;61072;47.808;7.636;2023-06-05T15:12:35;25.10;96.50
21031;DHT22;61072;47.808;7.636;2023-06-05T15:15:02;25.20;97.50
21031;DHT22;61072;47.808;7.636;2023-06-05T15:17:45;25.20;96.20
21031;DHT22;61072;47.808;7.636;2023-06-05T15:20:12;25.20;96.30
21031;DHT22;61072;47.808;7.636;2023-06-05T15:22:39;25.20;96.10
21031;DHT22;61072;47.808;7.636;2023-06-05T15:25:06;25.30;96.00
21031;DHT22;61072;47.808;7.636;2023-06-05T15:27:33;25.30;96.20
21031;DHT22;61072;47.808;7.636;2023-06-05T15:30:01;25.30;96.10
21031;DHT22;61072;47.808;7.636;2023-06-05T15:32:28;25.30;96.40
21031;DHT22;61072;47.808;7.636;2023-06-05T15:34:55;25.30;96.90
21031;DHT22;61072;47.808;7.636;2023-06-05T15:37:23;25.30;96.50
21031;DHT22;61072;47.808;7.636;2023-06-05T15:39:50;25.30;96.50
21031;DHT22;61072;47.808;7.636;2023-06-05T15:42:26;25.30;96.60
21031;DHT22;61072;47.808;7.636;2023-06-05T15:45:11;25.30;96.70
21031;DHT22;61072;47.808;7.636;2023-06-05T15:47:39;25.30;96.60
21031;DHT22;61072;47.808;7.636;2023-06-05T15:50:07;25.30;97.00
21031;DHT22;61072;47.808;7.636;2023-06-05T15:52:35;25.30;96.30
21031;DHT22;61072;47.808;7.636;2023-06-05T15:55:03;25.30;97.10
21031;DHT22;61072;47.808;7.636;2023-06-05T15:57:30;25.30;97.40
21031;DHT22;61072;47.808;7.636;2023-06-05T15:59:57;25.30;96.80
21031;DHT22;61072;47.808;7.636;2023-06-05T16:02:23;25.30;96.90
21031;DHT22;61072;47.808;7.636;2023-06-05T16:04:51;25.40;97.20
21031;DHT22;61072;47.808;7.636;2023-06-05T16:07:18;25.30;96.60
21031;DHT22;61072;47.808;7.636;2023-06-05T16:09:45;25.40;96.80
21031;DHT22;61072;47.808;7.636;2023-06-05T16:12:11;25.30;97.40
21031;DHT22;61072;47.808;7.636;2023-06-05T16:14:38;25.30;97.10
21031;DHT22;61072;47.808;7.636;2023-06-05T16:17:05;25.30;97.10
21031;DHT22;61072;47.808;7.636;2023-06-05T16:19:32;25.30;97.70
21031;DHT22;61072;47.808;7.636;2023-06-05T16:21:58;25.30;97.90